• Join FlightAware (Why Join?)
  • Login
  • US Flag 
03:54AM EDT


 

Airport Tracker/Info


-or-


 

Live Flight TrackerFlight Track Log ✈ RAX81 ✈ 09-May-2013 ✈ KTEB - KBOS

Flight Track Log - Related Links

Times and Time Zones

All times are in EDT time to prevent confusion due to time zone crossing. See the RAX81 flight status page for this flight to view local times or setup timezone preferences in your user account.

Time Position Orientation Groundspeed Altitude Reporting Facility
EDT Latitude Longitude Course Direction KTS MPH feet Rate Location/Type
06:25AM 40.8833 -74.0500 339° North 142 163 1,800  Level New York TRACON
06:26AM 40.9167 -74.0667 339° North 140 161 3,400 1,440 Climbing New York TRACON
06:27AM 40.9500 -74.1167 311° West 160 184 4,700 1,260 Climbing New York TRACON
06:28AM 40.9833 -74.1500 323° Northwest 162 186 6,000 600 Climbing New York TRACON
06:29AM 41.0500 -74.1500 360° North 229 264 6,000 600 Level New York TRACON
06:30AM 41.1000 -74.1167 27° Northeast 217 250 7,200 1,200 Climbing New York TRACON
06:31AM 41.1167 -74.0500 72° East 184 212 8,500 1,200 Climbing New York TRACON
06:32AM 41.1333 -74.0000 66° East 189 217 9,600 1,080 Climbing New York TRACON
06:33AM 41.1667 -73.9333 56° Northeast 195 224 10,700 960 Climbing New York TRACON
06:35AM 41.1978 -73.8250 69° East 212 244 12,400 900 Climbing Boston Center
06:36AM 41.2150 -73.7700 67° East 205 236 13,200 900 Climbing Boston Center
06:37AM 41.2367 -73.6933 69° East 187 215 14,300 900 Climbing Boston Center
06:38AM 41.2542 -73.6164 73° East 187 215 15,000 300 Climbing Boston Center
06:39AM 41.2653 -73.5503 77° East 200 230 15,000  Level Boston Center
06:40AM 41.2831 -73.4567 76° East 223 257 15,000  Level Boston Center
06:41AM 41.2961 -73.3794 77° East 229 264 15,000  Level Boston Center
06:42AM 41.3136 -73.2858 76° East 235 270 15,000  Level Boston Center
06:43AM 41.3308 -73.2003 75° East 240 276 15,000  Level Boston Center
06:44AM 41.3481 -73.1147 75° East 240 276 15,000  Level Boston Center
06:45AM 41.3631 -73.0431 74° East 240 276 15,000  Level Boston Center
06:46AM 41.3822 -72.9408 76° East 240 276 15,100  Climbing Boston Center
06:47AM 41.3950 -72.8636 78° East 240 276 15,100  Level Boston Center
06:48AM 41.4161 -72.7667 74° East 240 276 15,100  Level Boston Center
06:49AM 41.4311 -72.6892 76° East 240 276 15,100 -60 Level Boston Center
06:50AM 41.4458 -72.5953 78° East 240 276 15,000 -60 Descending Boston Center
06:51AM 41.4689 -72.5206 68° East 240 276 15,000 -60 Level Boston Center
06:52AM 41.4958 -72.4428 65° Northeast 244 281 14,900 -720 Descending Boston Center
06:53AM 41.5314 -72.3431 65° Northeast 272 313 13,600 -900 Descending Boston Center
06:54AM 41.5603 -72.2514 67° East 272 313 13,100 -600 Descending Boston Center
06:55AM 41.5956 -72.1569 63° Northeast 266 306 12,400 -660 Descending Boston Center
06:56AM 41.6244 -72.0653 67° East 262 302 11,800 -600 Descending Boston Center
06:57AM 41.6514 -71.9789 67° East 260 299 11,200 -660 Descending Boston Center
06:58AM 41.6781 -71.8869 69° East 260 299 10,500 -660 Descending Boston Center
06:59AM 41.7025 -71.8006 69° East 252 290 9,900 -600 Descending Boston Center
06:59AM 41.7025 -71.8006 69° East 253 291 9,900 -720 Level Boston Center
07:00AM 41.7542 -71.7417 40° Northeast 252 290 9,200 -1,020 Descending Boston Center
07:01AM 41.8183 -71.6742 38° Northeast 259 298 7,900 -1,080 Descending Boston Center
07:02AM 41.8722 -71.6064 43° Northeast 265 305 7,100 -720 Descending Boston Center
07:03AM 41.9236 -71.5389 44° Northeast 260 299 6,500 -780 Descending Boston Center
07:04AM 41.9358 -71.4800 74° East 240 276 5,600 -1,140 Descending Boston Center
07:05AM 41.9536 -71.3681 78° East 234 269 4,300 -840 Descending Boston Center
07:06AM 41.9614 -71.3122 79° East 234 269 4,000 -180 Descending Boston Center
07:07AM 42.0000 -71.2164 62° Northeast 218 251 4,000  Level Boston Center
07:08AM 42.0450 -71.1569 44° Northeast 218 251 4,000  Level Boston Center
07:09AM 42.1031 -71.1306 19° North 218 251 4,000 -360 Level Boston Center
07:10AM 42.1667 -71.1000 20° North 235 270 3,300 -660 Descending KA90
07:11AM 42.2167 -71.0833 14° North 187 215 2,800 -720 Descending KA90
07:12AM 42.2667 -71.0500 26° Northeast 181 208 1,900 -840 Descending KA90
07:13AM 42.3000 -71.0333 20° North 147 169 1,200 -780 Descending KA90
07:14AM 42.3333 -71.0167 20° North 132 152 500 -720 Descending KA90